Time;durP1;ratioP1;P1;durP2;ratioP2;P2;SDS_P1;SDS_P2;PMS_P1;PMS_P2;Temp;Humidity;BMP_temperature;BMP_pressure;BME280_temperature;BME280_humidity;BME280_pressure;Samples;Min_cycle;Max_cycle;Signal;HPM_P1;HPM_P2
2020/12/02 00:01:39;;;;;;;59.80;26.67;;;;;;;;;;5076659;28;20195;-67
2020/12/02 00:04:10;;;;;;;56.92;26.48;;;;;;;;;;5076360;28;20647;-67
2020/12/02 00:06:37;;;;;;;55.00;28.00;;;;;;;;;;5076632;28;20183;-67
2020/12/02 00:09:09;;;;;;;44.78;25.35;;;;;;;;;;5076458;28;20206;-67
2020/12/02 00:11:36;;;;;;;50.95;27.95;;;;;;;;;;5075137;28;20196;-67
2020/12/02 00:14:05;;;;;;;47.78;25.95;;;;;;;;;;5076646;28;20265;-68
2020/12/02 00:16:33;;;;;;;50.72;25.58;;;;;;;;;;5076254;28;20621;-67
2020/12/02 00:19:00;;;;;;;48.70;26.88;;;;;;;;;;5076271;28;20255;-67
2020/12/02 00:21:32;;;;;;;52.20;26.52;;;;;;;;;;5076564;28;20173;-67
2020/12/02 00:23:59;;;;;;;48.45;24.38;;;;;;;;;;5077041;28;20615;-67
2020/12/02 00:26:29;;;;;;;41.72;24.10;;;;;;;;;;5076295;28;20199;-68
2020/12/02 00:28:57;;;;;;;39.88;23.17;;;;;;;;;;5075954;28;20227;-67
2020/12/02 00:31:24;;;;;;;41.40;24.02;;;;;;;;;;5076134;28;20665;-68
2020/12/02 00:33:51;;;;;;;41.05;23.05;;;;;;;;;;5076252;28;20219;-68
2020/12/02 00:36:18;;;;;;;37.92;21.50;;;;;;;;;;5075215;28;20192;-65
2020/12/02 00:38:45;;;;;;;37.15;22.95;;;;;;;;;;5075901;28;20243;-66
2020/12/02 00:41:12;;;;;;;41.05;21.75;;;;;;;;;;5076109;28;20299;-67
2020/12/02 00:43:38;;;;;;;37.83;21.38;;;;;;;;;;5075847;28;20192;-67
2020/12/02 00:46:05;;;;;;;41.20;22.40;;;;;;;;;;5075927;28;20285;-67
2020/12/02 00:48:35;;;;;;;35.67;22.60;;;;;;;;;;5075878;28;20588;-67
2020/12/02 00:51:02;;;;;;;33.83;21.88;;;;;;;;;;5075752;28;20200;-67
2020/12/02 00:53:33;;;;;;;30.70;19.42;;;;;;;;;;5075855;28;20651;-67
2020/12/02 00:56:02;;;;;;;33.20;20.63;;;;;;;;;;5075939;28;20207;-67
2020/12/02 00:58:31;;;;;;;34.50;20.23;;;;;;;;;;5074468;28;20224;-67
2020/12/02 01:01:00;;;;;;;34.67;19.77;;;;;;;;;;5075673;28;20639;-67
2020/12/02 01:03:27;;;;;;;36.78;20.90;;;;;;;;;;5075488;28;20274;-67
2020/12/02 01:05:55;;;;;;;35.65;22.23;;;;;;;;;;5075858;28;20200;-67
2020/12/02 01:08:25;;;;;;;36.65;21.50;;;;;;;;;;5075403;28;20636;-67
2020/12/02 01:10:55;;;;;;;33.92;21.27;;;;;;;;;;5075285;28;20199;-67
2020/12/02 01:13:21;;;;;;;34.63;20.33;;;;;;;;;;5075257;28;20192;-67
2020/12/02 01:15:48;;;;;;;40.83;21.38;;;;;;;;;;5074236;28;20535;-67
2020/12/02 01:18:16;;;;;;;38.22;21.92;;;;;;;;;;5075153;28;20273;-67
2020/12/02 01:20:44;;;;;;;37.75;22.65;;;;;;;;;;5075633;28;20216;-67
2020/12/02 01:23:12;;;;;;;33.83;20.85;;;;;;;;;;5075100;28;20526;-67
2020/12/02 01:25:38;;;;;;;35.05;20.90;;;;;;;;;;5075151;28;20667;-68
2020/12/02 01:28:06;;;;;;;40.70;21.45;;;;;;;;;;5075121;28;20541;-67
2020/12/02 01:30:36;;;;;;;37.90;21.20;;;;;;;;;;5073720;28;20240;-67
2020/12/02 01:33:03;;;;;;;35.38;20.10;;;;;;;;;;5075027;28;20560;-67
2020/12/02 01:35:31;;;;;;;39.40;21.67;;;;;;;;;;5074703;28;20198;-67
2020/12/02 01:38:03;;;;;;;40.33;21.58;;;;;;;;;;5075119;28;20227;-67
2020/12/02 01:40:31;;;;;;;34.92;20.38;;;;;;;;;;5074723;28;20200;-67
2020/12/02 01:43:02;;;;;;;46.03;22.55;;;;;;;;;;5074813;28;20191;-67
2020/12/02 01:45:38;;;;;;;49.97;22.70;;;;;;;;;;5075147;28;20640;-64
2020/12/02 01:48:20;;;;;;;54.35;25.30;;;;;;;;;;5074665;28;20690;-65
2020/12/02 01:50:49;;;;;;;55.40;24.85;;;;;;;;;;5074525;28;20609;-65
2020/12/02 01:53:27;;;;;;;73.78;27.25;;;;;;;;;;5074822;28;20187;-65
2020/12/02 01:56:00;;;;;;;72.82;28.65;;;;;;;;;;5074639;28;20203;-65
2020/12/02 01:58:47;;;;;;;78.40;27.90;;;;;;;;;;5074616;28;20392;-65
2020/12/02 02:01:22;;;;;;;81.18;31.80;;;;;;;;;;5074265;28;20176;-64
2020/12/02 02:03:50;;;;;;;89.63;29.00;;;;;;;;;;5074283;28;20290;-65
2020/12/02 02:06:21;;;;;;;88.93;32.17;;;;;;;;;;5074271;28;20211;-65
2020/12/02 02:08:48;;;;;;;88.93;32.13;;;;;;;;;;5074146;28;20191;-65
2020/12/02 02:11:20;;;;;;;101.65;33.67;;;;;;;;;;5074071;28;20282;-65
2020/12/02 02:13:47;;;;;;;98.70;34.53;;;;;;;;;;5074097;28;20200;-65
2020/12/02 02:16:13;;;;;;;100.55;35.35;;;;;;;;;;5074358;28;20191;-65
2020/12/02 02:18:40;;;;;;;125.45;35.85;;;;;;;;;;5073897;28;20228;-65
2020/12/02 02:21:08;;;;;;;120.38;37.20;;;;;;;;;;5073969;28;20204;-64
2020/12/02 02:23:35;;;;;;;116.43;34.95;;;;;;;;;;5074240;28;20206;-64
2020/12/02 02:26:20;;;;;;;106.40;36.75;;;;;;;;;;5074331;28;20228;-65
2020/12/02 02:28:54;;;;;;;97.82;32.10;;;;;;;;;;5073862;28;20228;-65
2020/12/02 02:31:22;;;;;;;104.50;32.75;;;;;;;;;;5074092;28;20183;-65
2020/12/02 02:33:50;;;;;;;113.57;35.55;;;;;;;;;;5074414;28;20560;-65
2020/12/02 02:36:17;;;;;;;105.55;33.08;;;;;;;;;;5074287;28;20196;-65
2020/12/02 02:38:44;;;;;;;98.82;32.13;;;;;;;;;;5072642;28;20219;-65
2020/12/02 02:41:11;;;;;;;102.47;33.92;;;;;;;;;;5074094;28;20523;-65
2020/12/02 02:43:38;;;;;;;103.63;32.50;;;;;;;;;;5055992;28;20200;-65
2020/12/02 02:46:05;;;;;;;112.10;37.55;;;;;;;;;;5073995;28;20195;-65
2020/12/02 02:48:32;;;;;;;95.22;32.75;;;;;;;;;;5074189;28;20647;-65
2020/12/02 02:51:00;;;;;;;107.63;34.00;;;;;;;;;;5073995;28;20210;-65
2020/12/02 02:53:27;;;;;;;122.07;35.90;;;;;;;;;;5073792;28;20250;-64
2020/12/02 02:55:54;;;;;;;114.88;35.75;;;;;;;;;;5074068;28;20279;-65
2020/12/02 02:58:25;;;;;;;121.35;36.55;;;;;;;;;;5073767;28;20296;-64
2020/12/02 03:00:54;;;;;;;126.97;39.97;;;;;;;;;;5078824;28;20204;-64
2020/12/02 03:03:23;;;;;;;111.75;39.63;;;;;;;;;;5077682;28;20226;-64
2020/12/02 03:05:50;;;;;;;108.00;38.70;;;;;;;;;;5077693;28;20194;-64
2020/12/02 03:08:18;;;;;;;108.63;37.80;;;;;;;;;;5077392;28;20199;-65
2020/12/02 03:10:45;;;;;;;118.65;36.90;;;;;;;;;;5077534;28;20191;-64
2020/12/02 03:13:15;;;;;;;111.00;37.83;;;;;;;;;;5077701;28;20183;-64
2020/12/02 03:15:41;;;;;;;115.47;39.67;;;;;;;;;;5077685;28;20187;-65
2020/12/02 03:18:08;;;;;;;113.28;36.10;;;;;;;;;;5077654;28;20232;-64
2020/12/02 03:20:40;;;;;;;109.65;37.10;;;;;;;;;;5077629;28;20192;-64
2020/12/02 03:23:09;;;;;;;119.63;38.45;;;;;;;;;;5077318;28;20237;-64
2020/12/02 03:25:37;;;;;;;119.72;38.30;;;;;;;;;;5076575;28;20201;-64
2020/12/02 03:28:04;;;;;;;111.47;36.90;;;;;;;;;;5077258;28;20193;-64
2020/12/02 03:30:30;;;;;;;95.28;36.83;;;;;;;;;;5076927;28;20231;-64
2020/12/02 03:32:57;;;;;;;85.22;35.03;;;;;;;;;;5076516;28;20210;-64
2020/12/02 03:35:25;;;;;;;105.75;35.15;;;;;;;;;;5076970;28;20211;-64
2020/12/02 03:37:52;;;;;;;101.47;38.92;;;;;;;;;;5075771;28;20196;-65
2020/12/02 03:40:19;;;;;;;90.90;37.28;;;;;;;;;;5076354;28;20208;-65
2020/12/02 03:42:46;;;;;;;85.00;31.73;;;;;;;;;;5077129;28;20382;-65
2020/12/02 03:45:13;;;;;;;96.40;37.47;;;;;;;;;;5076887;28;20597;-65
2020/12/02 03:47:39;;;;;;;84.85;36.22;;;;;;;;;;5075751;28;20204;-64
2020/12/02 03:50:08;;;;;;;91.43;32.85;;;;;;;;;;5076760;28;20187;-65
2020/12/02 03:52:34;;;;;;;83.72;29.85;;;;;;;;;;5076976;28;20663;-65
2020/12/02 03:55:04;;;;;;;86.85;35.47;;;;;;;;;;5076789;28;20690;-65
2020/12/02 03:57:30;;;;;;;77.80;34.63;;;;;;;;;;5076931;28;20212;-65
2020/12/02 04:00:00;;;;;;;95.32;36.15;;;;;;;;;;5076652;28;20211;-65
2020/12/02 04:02:27;;;;;;;87.78;34.42;;;;;;;;;;5076269;28;20200;-65
2020/12/02 04:04:53;;;;;;;82.43;34.22;;;;;;;;;;5076111;28;20192;-65
2020/12/02 04:07:20;;;;;;;76.78;32.13;;;;;;;;;;5062627;28;20199;-65
2020/12/02 04:09:47;;;;;;;75.28;32.35;;;;;;;;;;5074743;28;20221;-65
2020/12/02 04:12:14;;;;;;;76.40;31.50;;;;;;;;;;5075309;28;20216;-65
2020/12/02 04:14:41;;;;;;;72.75;31.48;;;;;;;;;;5075567;28;20669;-65
2020/12/02 04:17:08;;;;;;;73.40;32.90;;;;;;;;;;5076238;28;20212;-65
2020/12/02 04:19:35;;;;;;;87.03;30.58;;;;;;;;;;5076203;28;20211;-65
2020/12/02 04:22:02;;;;;;;85.68;33.55;;;;;;;;;;5076322;28;20192;-65
2020/12/02 04:24:28;;;;;;;72.13;33.03;;;;;;;;;;5076557;28;20615;-64
2020/12/02 04:26:55;;;;;;;79.90;32.40;;;;;;;;;;5074940;28;20211;-64
2020/12/02 04:29:22;;;;;;;89.25;33.88;;;;;;;;;;5076122;28;20587;-64
2020/12/02 04:31:48;;;;;;;78.68;33.50;;;;;;;;;;5074921;28;20239;-64
2020/12/02 04:34:15;;;;;;;68.70;32.45;;;;;;;;;;5076032;28;20196;-64
2020/12/02 04:36:47;;;;;;;73.15;34.65;;;;;;;;;;5076515;28;20188;-64
2020/12/02 04:39:14;;;;;;;60.72;29.42;;;;;;;;;;5076361;28;20626;-64
2020/12/02 04:41:45;;;;;;;62.90;29.50;;;;;;;;;;5076364;28;20176;-63
2020/12/02 04:44:12;;;;;;;61.60;30.42;;;;;;;;;;5076293;28;20184;-64
2020/12/02 04:46:39;;;;;;;66.28;30.52;;;;;;;;;;5076328;28;20666;-64
2020/12/02 04:49:20;;;;;;;53.60;26.98;;;;;;;;;;5075863;28;20216;-64
2020/12/02 04:51:50;;;;;;;52.08;29.10;;;;;;;;;;5076104;28;20187;-64
2020/12/02 04:54:18;;;;;;;54.97;27.63;;;;;;;;;;5076111;28;20184;-64
2020/12/02 04:56:46;;;;;;;55.80;26.10;;;;;;;;;;5075945;28;20192;-64
2020/12/02 04:59:13;;;;;;;59.60;27.05;;;;;;;;;;5075704;28;20230;-64
2020/12/02 05:01:51;;;;;;;49.20;26.30;;;;;;;;;;5075665;28;20196;-64
2020/12/02 05:04:22;;;;;;;51.85;25.23;;;;;;;;;;5075539;28;20192;-64
2020/12/02 05:07:06;;;;;;;54.55;25.70;;;;;;;;;;5075257;28;20204;-64
2020/12/02 05:09:34;;;;;;;49.20;26.27;;;;;;;;;;5075603;28;20191;-64
2020/12/02 05:12:12;;;;;;;53.75;28.77;;;;;;;;;;5058401;28;20204;-64
2020/12/02 05:14:38;;;;;;;45.55;24.92;;;;;;;;;;5076355;28;20207;-64
2020/12/02 05:17:17;;;;;;;50.45;25.75;;;;;;;;;;5075377;28;20313;-64
2020/12/02 05:19:45;;;;;;;46.65;24.65;;;;;;;;;;5074937;28;20220;-64
2020/12/02 05:22:13;;;;;;;48.70;27.13;;;;;;;;;;5075745;28;20606;-64
2020/12/02 05:24:50;;;;;;;48.13;25.27;;;;;;;;;;5074011;28;20666;-65
2020/12/02 05:27:18;;;;;;;48.45;26.40;;;;;;;;;;5073681;28;20200;-63
2020/12/02 05:29:54;;;;;;;46.00;24.67;;;;;;;;;;5074761;28;20642;-63
2020/12/02 05:32:27;;;;;;;46.40;24.77;;;;;;;;;;5075236;28;20267;-63
2020/12/02 05:34:54;;;;;;;48.55;25.48;;;;;;;;;;5075372;28;20643;-63
2020/12/02 05:37:29;;;;;;;48.08;25.25;;;;;;;;;;5074965;28;20192;-64
2020/12/02 05:40:01;;;;;;;47.72;24.77;;;;;;;;;;5075048;28;20200;-64
2020/12/02 05:42:35;;;;;;;44.05;24.40;;;;;;;;;;5073350;28;20579;-64
2020/12/02 05:45:06;;;;;;;44.28;24.48;;;;;;;;;;5073308;28;20200;-64
2020/12/02 05:47:33;;;;;;;45.65;24.67;;;;;;;;;;5073413;28;20200;-64
2020/12/02 05:50:06;;;;;;;39.80;22.83;;;;;;;;;;5075040;28;20283;-65
2020/12/02 05:52:33;;;;;;;44.78;23.98;;;;;;;;;;5074832;28;20191;-65
2020/12/02 05:55:23;;;;;;;41.10;22.52;;;;;;;;;;5074424;28;20189;-65
2020/12/02 05:57:55;;;;;;;39.80;21.05;;;;;;;;;;5073330;28;20290;-65
2020/12/02 06:00:23;;;;;;;37.00;21.25;;;;;;;;;;5073063;28;20200;-65
2020/12/02 06:02:52;;;;;;;38.88;22.95;;;;;;;;;;5074252;28;20208;-65
2020/12/02 06:05:20;;;;;;;39.65;22.23;;;;;;;;;;5074487;28;20207;-65
2020/12/02 06:07:49;;;;;;;44.17;22.23;;;;;;;;;;5075275;28;20212;-65
2020/12/02 06:10:17;;;;;;;44.65;22.20;;;;;;;;;;5074190;28;20214;-65
2020/12/02 06:12:45;;;;;;;41.65;22.65;;;;;;;;;;5074387;28;20188;-66
2020/12/02 06:15:38;;;;;;;36.75;21.40;;;;;;;;;;5074155;28;20200;-68
2020/12/02 06:18:21;;;;;;;35.83;19.08;;;;;;;;;;5072416;28;20203;-67
2020/12/02 06:20:49;;;;;;;35.60;20.33;;;;;;;;;;5073922;28;20191;-67
2020/12/02 06:23:15;;;;;;;46.78;22.40;;;;;;;;;;5074065;28;20212;-67
2020/12/02 06:25:54;;;;;;;32.53;18.40;;;;;;;;;;5074111;28;20647;-67
2020/12/02 06:28:27;;;;;;;35.67;20.58;;;;;;;;;;5074321;28;20195;-67
2020/12/02 06:30:57;;;;;;;33.70;20.00;;;;;;;;;;5073956;28;20668;-67
2020/12/02 06:33:29;;;;;;;37.80;21.45;;;;;;;;;;5073510;28;20199;-67
2020/12/02 06:36:03;;;;;;;39.88;21.52;;;;;;;;;;5074273;28;20181;-67
2020/12/02 06:38:31;;;;;;;43.03;23.60;;;;;;;;;;5073795;28;20245;-67
2020/12/02 06:41:00;;;;;;;34.50;20.60;;;;;;;;;;5073751;28;20582;-67
2020/12/02 06:43:30;;;;;;;34.00;18.98;;;;;;;;;;5073398;28;20303;-67
2020/12/02 06:46:04;;;;;;;39.00;22.77;;;;;;;;;;5073881;28;20195;-67
2020/12/02 06:48:35;;;;;;;39.53;22.00;;;;;;;;;;5073866;28;20218;-67
2020/12/02 06:51:07;;;;;;;35.25;18.92;;;;;;;;;;5072333;28;20212;-67
2020/12/02 06:53:35;;;;;;;37.20;20.52;;;;;;;;;;5073692;28;20184;-67
2020/12/02 06:56:03;;;;;;;36.60;21.25;;;;;;;;;;5073851;28;20191;-67
2020/12/02 06:58:29;;;;;;;35.53;19.42;;;;;;;;;;5073541;28;20223;-67
2020/12/02 07:00:57;;;;;;;35.85;21.13;;;;;;;;;;5072251;28;20192;-67
2020/12/02 07:03:43;;;;;;;35.00;20.08;;;;;;;;;;5072379;28;20204;-67
2020/12/02 07:06:10;;;;;;;36.58;20.65;;;;;;;;;;5073234;28;20542;-67
2020/12/02 07:08:38;;;;;;;37.25;21.08;;;;;;;;;;5073749;28;20598;-67
2020/12/02 07:11:10;;;;;;;39.72;20.55;;;;;;;;;;5073408;28;20645;-66
2020/12/02 07:13:39;;;;;;;32.72;18.98;;;;;;;;;;5073543;28;20203;-67
2020/12/02 07:16:29;;;;;;;31.45;18.70;;;;;;;;;;5073622;28;20202;-67
2020/12/02 07:19:01;;;;;;;36.97;20.23;;;;;;;;;;5073161;28;20632;-67
2020/12/02 07:21:31;;;;;;;33.25;20.17;;;;;;;;;;5072429;28;20640;-67
2020/12/02 07:23:59;;;;;;;37.65;21.25;;;;;;;;;;5073776;28;20275;-67
2020/12/02 07:26:26;;;;;;;38.10;21.90;;;;;;;;;;5073531;28;20699;-67
2020/12/02 07:28:56;;;;;;;35.53;22.23;;;;;;;;;;5073431;28;20244;-67
2020/12/02 07:31:23;;;;;;;34.70;21.83;;;;;;;;;;5073319;28;20192;-67
2020/12/02 07:34:01;;;;;;;33.40;20.65;;;;;;;;;;5073363;28;20196;-67
2020/12/02 07:36:32;;;;;;;32.47;18.90;;;;;;;;;;5073323;28;20190;-67
2020/12/02 07:39:01;;;;;;;36.17;20.05;;;;;;;;;;5073730;28;20662;-66
2020/12/02 07:41:28;;;;;;;36.57;23.10;;;;;;;;;;5072636;28;20845;-65
2020/12/02 07:43:54;;;;;;;33.05;19.88;;;;;;;;;;5073255;28;20600;-65
2020/12/02 07:46:24;;;;;;;31.10;18.90;;;;;;;;;;5076717;28;20203;-65
2020/12/02 07:48:52;;;;;;;35.28;19.85;;;;;;;;;;5076651;28;20219;-65
2020/12/02 07:51:22;;;;;;;27.33;17.90;;;;;;;;;;5076766;28;20189;-65
2020/12/02 07:54:10;;;;;;;32.50;18.60;;;;;;;;;;5076703;28;20187;-65
2020/12/02 07:56:38;;;;;;;30.13;17.63;;;;;;;;;;5076737;28;20184;-65
2020/12/02 07:59:06;;;;;;;37.65;18.75;;;;;;;;;;5076890;28;20223;-65
2020/12/02 08:01:43;;;;;;;29.35;16.17;;;;;;;;;;5076768;28;20200;-67
2020/12/02 08:04:22;;;;;;;27.92;16.60;;;;;;;;;;5076675;28;20196;-67
2020/12/02 08:06:58;;;;;;;29.02;17.50;;;;;;;;;;5076536;28;20200;-67
2020/12/02 08:09:25;;;;;;;29.67;17.70;;;;;;;;;;5076436;28;20309;-67
2020/12/02 08:11:54;;;;;;;27.15;16.92;;;;;;;;;;5076620;28;20243;-66
2020/12/02 08:14:22;;;;;;;31.50;18.55;;;;;;;;;;5076215;28;20204;-66
2020/12/02 08:16:52;;;;;;;31.13;18.83;;;;;;;;;;5076209;28;20195;-66
2020/12/02 08:19:31;;;;;;;30.67;19.05;;;;;;;;;;5076393;28;20204;-66
2020/12/02 08:21:59;;;;;;;31.73;17.92;;;;;;;;;;5076328;28;20207;-66
2020/12/02 08:24:35;;;;;;;31.60;17.38;;;;;;;;;;5076449;28;20192;-66
2020/12/02 08:27:02;;;;;;;30.42;18.33;;;;;;;;;;5076269;28;20636;-66
2020/12/02 08:29:30;;;;;;;26.63;17.45;;;;;;;;;;5075870;28;20714;-66
2020/12/02 08:32:17;;;;;;;29.98;17.77;;;;;;;;;;5076334;28;20192;-66
2020/12/02 08:34:43;;;;;;;30.02;17.05;;;;;;;;;;5075927;28;20651;-66
2020/12/02 08:37:31;;;;;;;33.58;18.33;;;;;;;;;;5076352;28;20550;-66
2020/12/02 08:39:58;;;;;;;28.52;18.02;;;;;;;;;;5075672;28;20222;-66
2020/12/02 08:42:32;;;;;;;31.73;16.55;;;;;;;;;;5075823;28;20188;-66
2020/12/02 08:45:14;;;;;;;31.05;18.35;;;;;;;;;;5075784;28;20278;-66
2020/12/02 08:47:41;;;;;;;31.45;17.25;;;;;;;;;;5077024;28;20608;-66
2020/12/02 08:50:16;;;;;;;32.05;17.95;;;;;;;;;;5075684;28;20202;-66
2020/12/02 08:52:50;;;;;;;29.35;16.45;;;;;;;;;;5075692;28;20200;-66
2020/12/02 08:55:18;;;;;;;30.77;17.80;;;;;;;;;;5075914;28;20203;-67
2020/12/02 08:57:44;;;;;;;29.92;16.92;;;;;;;;;;5075596;28;20191;-65
2020/12/02 09:00:13;;;;;;;28.25;16.33;;;;;;;;;;5075919;28;20231;-66
2020/12/02 09:02:40;;;;;;;26.90;15.27;;;;;;;;;;5075583;28;20606;-66
2020/12/02 09:05:07;;;;;;;32.30;17.20;;;;;;;;;;5076281;28;20241;-66
2020/12/02 09:07:34;;;;;;;24.95;16.30;;;;;;;;;;5075748;28;20204;-66
2020/12/02 09:10:05;;;;;;;27.98;16.60;;;;;;;;;;5075201;28;20209;-66
2020/12/02 09:12:34;;;;;;;27.42;15.70;;;;;;;;;;5076111;28;20207;-66
2020/12/02 09:15:00;;;;;;;27.27;18.08;;;;;;;;;;5075300;28;20193;-66
2020/12/02 09:17:29;;;;;;;26.63;15.93;;;;;;;;;;5073862;28;20195;-66
2020/12/02 09:19:56;;;;;;;26.45;16.45;;;;;;;;;;5075186;28;20239;-66
2020/12/02 09:22:23;;;;;;;27.80;16.90;;;;;;;;;;5074979;28;20199;-66
2020/12/02 09:24:50;;;;;;;28.15;16.80;;;;;;;;;;5075023;28;20191;-66
2020/12/02 09:27:19;;;;;;;31.98;16.50;;;;;;;;;;5074844;28;20287;-66
2020/12/02 09:29:46;;;;;;;24.90;16.38;;;;;;;;;;5074610;28;20234;-67
2020/12/02 09:32:12;;;;;;;25.13;15.55;;;;;;;;;;5074857;28;20556;-65
2020/12/02 09:34:39;;;;;;;29.05;17.50;;;;;;;;;;5074983;28;20203;-65
2020/12/02 09:37:11;;;;;;;26.77;16.88;;;;;;;;;;5075110;28;20207;-66
2020/12/02 09:39:41;;;;;;;32.33;17.38;;;;;;;;;;5074853;28;20328;-66
2020/12/02 09:42:14;;;;;;;35.42;17.45;;;;;;;;;;5074407;28;20196;-66
2020/12/02 09:44:49;;;;;;;39.95;19.15;;;;;;;;;;5074412;28;20198;-66
2020/12/02 09:47:17;;;;;;;28.15;18.55;;;;;;;;;;5074792;28;20180;-66
2020/12/02 09:49:45;;;;;;;26.42;16.80;;;;;;;;;;5074430;28;20687;-66
2020/12/02 09:52:15;;;;;;;24.77;15.95;;;;;;;;;;5074131;28;20619;-66
2020/12/02 09:54:43;;;;;;;23.05;15.60;;;;;;;;;;5074433;28;20200;-66
2020/12/02 09:57:23;;;;;;;25.75;16.17;;;;;;;;;;5074166;28;20215;-66
2020/12/02 09:59:56;;;;;;;28.20;16.30;;;;;;;;;;5074288;28;20192;-65
2020/12/02 10:02:29;;;;;;;23.98;15.43;;;;;;;;;;5074439;28;20191;-66
2020/12/02 10:05:10;;;;;;;25.33;17.15;;;;;;;;;;5074061;28;20196;-65
2020/12/02 10:07:45;;;;;;;26.13;17.13;;;;;;;;;;5074252;28;20190;-65
2020/12/02 10:10:21;;;;;;;24.85;15.73;;;;;;;;;;5074326;28;20207;-65
2020/12/02 10:13:04;;;;;;;27.88;17.13;;;;;;;;;;5073974;28;20264;-65
2020/12/02 10:15:39;;;;;;;28.50;17.15;;;;;;;;;;5074068;28;20172;-65
2020/12/02 10:18:26;;;;;;;25.90;15.98;;;;;;;;;;5074242;28;20527;-65
2020/12/02 10:21:02;;;;;;;23.88;15.43;;;;;;;;;;5073657;28;20724;-65
2020/12/02 10:23:48;;;;;;;31.88;16.80;;;;;;;;;;5073629;28;20204;-65
2020/12/02 10:26:16;;;;;;;25.80;16.73;;;;;;;;;;5074259;28;20211;-65
2020/12/02 10:28:43;;;;;;;23.73;16.05;;;;;;;;;;5073459;28;20293;-66
2020/12/02 10:31:15;;;;;;;33.17;16.92;;;;;;;;;;5073433;28;20639;-66
2020/12/02 10:33:57;;;;;;;29.58;18.15;;;;;;;;;;5073781;28;20172;-66
2020/12/02 10:36:25;;;;;;;24.70;16.08;;;;;;;;;;5073638;28;20211;-66
2020/12/02 10:38:57;;;;;;;24.98;16.63;;;;;;;;;;5073523;28;20187;-66
2020/12/02 10:41:26;;;;;;;28.25;15.98;;;;;;;;;;5073927;28;20206;-66
2020/12/02 10:43:55;;;;;;;29.17;14.55;;;;;;;;;;5073468;28;20195;-66
2020/12/02 10:46:26;;;;;;;27.38;16.00;;;;;;;;;;5073599;28;20204;-66
2020/12/02 10:49:00;;;;;;;27.17;16.42;;;;;;;;;;5073390;28;20219;-66
2020/12/02 10:51:29;;;;;;;24.58;16.15;;;;;;;;;;5072406;28;20219;-66
2020/12/02 10:53:55;;;;;;;32.58;16.80;;;;;;;;;;5073448;28;20211;-66
2020/12/02 10:56:23;;;;;;;31.58;16.90;;;;;;;;;;5073499;28;20210;-67
2020/12/02 10:58:53;;;;;;;31.08;15.48;;;;;;;;;;5073321;28;20207;-67
2020/12/02 11:01:21;;;;;;;29.15;15.50;;;;;;;;;;5073633;28;20597;-67
2020/12/02 11:03:48;;;;;;;36.35;17.08;;;;;;;;;;5073543;28;20233;-65
2020/12/02 11:06:33;;;;;;;31.33;17.50;;;;;;;;;;5073515;28;20195;-65
2020/12/02 11:09:25;;;;;;;28.35;16.27;;;;;;;;;;5073565;28;20199;-66
2020/12/02 11:12:20;;;;;;;36.30;17.75;;;;;;;;;;5072562;28;20238;-65
2020/12/02 11:14:54;;;;;;;24.70;16.75;;;;;;;;;;5072681;28;20549;-65
2020/12/02 11:17:21;;;;;;;29.65;17.42;;;;;;;;;;5073387;28;20206;-66
2020/12/02 11:20:02;;;;;;;33.75;16.23;;;;;;;;;;5074446;28;20215;-65
2020/12/02 11:22:41;;;;;;;29.02;17.58;;;;;;;;;;5077993;28;20231;-65
2020/12/02 11:25:13;;;;;;;28.60;17.00;;;;;;;;;;5077079;28;20206;-65
2020/12/02 11:27:42;;;;;;;27.80;17.35;;;;;;;;;;5077129;28;20192;-65
2020/12/02 11:30:14;;;;;;;26.00;15.63;;;;;;;;;;5076994;28;20633;-65
2020/12/02 11:33:00;;;;;;;32.83;18.42;;;;;;;;;;5076973;28;20200;-65
2020/12/02 11:35:38;;;;;;;29.48;17.80;;;;;;;;;;5076952;28;20196;-65
2020/12/02 11:38:19;;;;;;;30.88;15.65;;;;;;;;;;5077312;28;20550;-65
2020/12/02 11:40:48;;;;;;;26.23;16.92;;;;;;;;;;5075743;28;20619;-65
2020/12/02 11:43:23;;;;;;;26.77;16.30;;;;;;;;;;5069550;28;20195;-65
2020/12/02 11:45:52;;;;;;;32.00;17.85;;;;;;;;;;5070507;28;20204;-65
2020/12/02 11:48:24;;;;;;;34.08;18.05;;;;;;;;;;5063082;28;20220;-65
2020/12/02 11:50:57;;;;;;;30.25;16.17;;;;;;;;;;5063324;28;20196;-65
2020/12/02 11:53:44;;;;;;;36.63;20.95;;;;;;;;;;5061050;28;20199;-65
2020/12/02 11:56:14;;;;;;;34.35;16.70;;;;;;;;;;5058050;28;20218;-65
2020/12/02 11:58:42;;;;;;;33.30;18.15;;;;;;;;;;5076019;28;20230;-67
2020/12/02 12:01:28;;;;;;;29.75;17.10;;;;;;;;;;5076237;28;20226;-67
2020/12/02 12:04:00;;;;;;;28.35;17.42;;;;;;;;;;5076760;28;20191;-64
2020/12/02 12:06:29;;;;;;;31.95;16.67;;;;;;;;;;5076692;28;20195;-64
2020/12/02 12:09:14;;;;;;;23.75;14.50;;;;;;;;;;5075548;28;20203;-65
2020/12/02 12:11:41;;;;;;;23.65;15.55;;;;;;;;;;5076203;28;20196;-65
2020/12/02 12:14:12;;;;;;;22.40;15.35;;;;;;;;;;5075124;28;20212;-65
2020/12/02 12:16:39;;;;;;;23.17;14.18;;;;;;;;;;5076444;28;20398;-66
2020/12/02 12:19:20;;;;;;;26.80;15.57;;;;;;;;;;5076051;28;20188;-66
2020/12/02 12:21:47;;;;;;;24.23;15.20;;;;;;;;;;5076158;28;20601;-67
2020/12/02 12:24:17;;;;;;;23.30;14.23;;;;;;;;;;5076562;28;20180;-66
2020/12/02 12:26:48;;;;;;;23.75;14.48;;;;;;;;;;5076304;28;20195;-66
2020/12/02 12:29:17;;;;;;;25.15;16.30;;;;;;;;;;5075613;28;20255;-66
2020/12/02 12:32:24;;;;;;;27.25;18.30;;;;;;;;;;5075009;28;20172;-66
2020/12/02 12:34:56;;;;;;;23.05;14.75;;;;;;;;;;5073894;28;20196;-66
2020/12/02 12:37:30;;;;;;;30.08;16.85;;;;;;;;;;5075632;28;20230;-66
2020/12/02 12:39:59;;;;;;;22.70;16.10;;;;;;;;;;5075916;28;20234;-65
2020/12/02 12:42:27;;;;;;;29.38;17.50;;;;;;;;;;5075639;28;20194;-65
2020/12/02 12:44:55;;;;;;;24.42;15.48;;;;;;;;;;5076074;28;20192;-65
2020/12/02 12:47:31;;;;;;;22.90;16.40;;;;;;;;;;5074247;28;20622;-65
2020/12/02 12:49:57;;;;;;;26.85;16.88;;;;;;;;;;5074297;28;20242;-66
2020/12/02 12:52:25;;;;;;;33.90;18.33;;;;;;;;;;5075911;28;20188;-66
2020/12/02 12:54:57;;;;;;;23.80;16.35;;;;;;;;;;5075663;28;20191;-66
2020/12/02 12:57:27;;;;;;;31.10;17.27;;;;;;;;;;5074421;28;20245;-67
2020/12/02 13:00:00;;;;;;;26.85;14.90;;;;;;;;;;5076023;28;20670;-66
2020/12/02 13:02:29;;;;;;;30.77;16.70;;;;;;;;;;5075906;28;20574;-65
2020/12/02 13:04:56;;;;;;;27.67;16.00;;;;;;;;;;5075892;28;20215;-65
2020/12/02 13:07:38;;;;;;;29.83;18.67;;;;;;;;;;5075680;28;20204;-65
2020/12/02 13:10:26;;;;;;;23.63;16.35;;;;;;;;;;5075024;28;20211;-65
2020/12/02 13:13:06;;;;;;;38.17;18.67;;;;;;;;;;5075121;28;20211;-65
2020/12/02 13:15:49;;;;;;;30.55;19.58;;;;;;;;;;5075515;28;20203;-66
2020/12/02 13:18:34;;;;;;;26.60;17.58;;;;;;;;;;5075266;28;20200;-66
2020/12/02 13:21:15;;;;;;;29.48;19.02;;;;;;;;;;5075290;28;20220;-66
2020/12/02 13:24:00;;;;;;;32.35;19.35;;;;;;;;;;5074708;28;20208;-65
2020/12/02 13:26:27;;;;;;;33.90;20.65;;;;;;;;;;5075282;28;20223;-65
2020/12/02 13:29:03;;;;;;;35.00;20.20;;;;;;;;;;5074813;28;20228;-66
2020/12/02 13:31:33;;;;;;;28.73;18.45;;;;;;;;;;5074815;28;20287;-66
2020/12/02 13:34:02;;;;;;;27.65;20.35;;;;;;;;;;5074157;28;20754;-66
2020/12/02 13:36:30;;;;;;;24.77;18.35;;;;;;;;;;5073387;28;20184;-66
2020/12/02 13:38:58;;;;;;;29.20;18.63;;;;;;;;;;5075058;28;20192;-66
2020/12/02 13:41:32;;;;;;;29.27;18.35;;;;;;;;;;5074358;28;20216;-65
2020/12/02 13:44:00;;;;;;;36.88;19.23;;;;;;;;;;5073897;28;20209;-66
2020/12/02 13:46:29;;;;;;;32.47;17.85;;;;;;;;;;5074762;28;20207;-66
2020/12/02 13:48:58;;;;;;;40.30;22.33;;;;;;;;;;5074654;28;20213;-66
2020/12/02 13:51:38;;;;;;;26.10;18.00;;;;;;;;;;5074541;28;20220;-66
2020/12/02 13:54:09;;;;;;;29.08;17.83;;;;;;;;;;5075363;28;20279;-66
2020/12/02 13:56:41;;;;;;;31.65;19.65;;;;;;;;;;5074686;28;20580;-65
2020/12/02 13:59:28;;;;;;;28.30;17.70;;;;;;;;;;5074624;28;20226;-65
2020/12/02 14:02:11;;;;;;;27.27;18.17;;;;;;;;;;5074157;28;20200;-65
2020/12/02 14:04:45;;;;;;;30.63;18.95;;;;;;;;;;5074620;28;20663;-66
2020/12/02 14:07:13;;;;;;;29.10;19.13;;;;;;;;;;5074636;28;20171;-66
2020/12/02 14:09:46;;;;;;;32.60;18.80;;;;;;;;;;5074663;28;20195;-66
2020/12/02 14:12:17;;;;;;;33.05;18.67;;;;;;;;;;5075073;28;20180;-66
2020/12/02 14:14:46;;;;;;;32.53;18.73;;;;;;;;;;5074646;28;20199;-66
2020/12/02 14:17:15;;;;;;;31.98;18.63;;;;;;;;;;5074619;28;20195;-65
2020/12/02 14:19:42;;;;;;;32.15;19.88;;;;;;;;;;5074476;28;20223;-66
2020/12/02 14:22:19;;;;;;;38.63;21.02;;;;;;;;;;5074515;28;20283;-65
2020/12/02 14:24:52;;;;;;;27.00;18.05;;;;;;;;;;5074372;28;20226;-66
2020/12/02 14:27:24;;;;;;;34.58;19.38;;;;;;;;;;5074565;28;20195;-65
2020/12/02 14:29:52;;;;;;;30.52;19.35;;;;;;;;;;5073742;28;20231;-66
2020/12/02 14:32:18;;;;;;;32.85;18.85;;;;;;;;;;5073970;28;20279;-65
2020/12/02 14:34:46;;;;;;;39.33;19.55;;;;;;;;;;5074052;28;20704;-65
2020/12/02 14:37:13;;;;;;;27.50;19.08;;;;;;;;;;5074312;28;20188;-66
2020/12/02 14:39:40;;;;;;;27.25;18.23;;;;;;;;;;5073971;28;20540;-65